createdAt,value
2022-09-22T00:02:19.338Z,69.87
2022-09-22T00:04:50.351Z,69.97
2022-09-22T00:07:21.700Z,69.82
2022-09-22T00:09:52.530Z,69.99
2022-09-22T00:12:23.439Z,70.09
2022-09-22T00:14:54.345Z,70.06
2022-09-22T00:17:25.163Z,69.94
2022-09-22T00:19:56.015Z,70.10
2022-09-22T00:22:28.357Z,70.16
2022-09-22T00:25:00.278Z,70.28
2022-09-22T00:27:31.230Z,70.24
2022-09-22T00:30:02.156Z,70.29
2022-09-22T00:32:33.928Z,70.50
2022-09-22T00:35:04.941Z,70.37
2022-09-22T00:37:36.492Z,70.53
2022-09-22T00:40:10.250Z,70.65
2022-09-22T00:42:41.195Z,70.55
2022-09-22T00:45:14.665Z,70.73
2022-09-22T00:47:48.211Z,70.68
2022-09-22T00:50:22.156Z,70.54
2022-09-22T00:52:57.017Z,70.72
2022-09-22T00:55:34.045Z,70.86
2022-09-22T00:58:07.628Z,70.89
2022-09-22T01:00:40.224Z,70.95
2022-09-22T01:03:15.821Z,70.94
2022-09-22T01:05:50.403Z,71.03
2022-09-22T01:08:23.258Z,70.96
2022-09-22T01:10:55.975Z,70.69
2022-09-22T01:13:32.537Z,70.75
2022-09-22T01:16:13.735Z,70.72
2022-09-22T01:18:55.646Z,70.74
2022-09-22T01:21:37.932Z,70.89
2022-09-22T01:24:40.242Z,70.86
2022-09-22T01:27:46.808Z,70.83
2022-09-22T01:30:26.442Z,70.78
2022-09-22T01:33:07.541Z,70.85
2022-09-22T01:35:50.534Z,70.81
2022-09-22T01:38:31.627Z,70.65
2022-09-22T01:41:08.163Z,70.46
2022-09-22T01:43:49.411Z,70.44
2022-09-22T01:46:26.267Z,70.60
2022-09-22T01:49:00.913Z,70.70
2022-09-22T01:51:36.286Z,70.58
2022-09-22T01:54:12.781Z,70.59
2022-09-22T01:56:49.473Z,70.64
2022-09-22T01:59:24.597Z,70.75
2022-09-22T02:02:00.523Z,70.89
2022-09-22T02:04:37.246Z,70.92
2022-09-22T02:07:12.698Z,70.61
2022-09-22T02:09:47.383Z,70.77
2022-09-22T02:12:19.240Z,70.74
2022-09-22T02:14:50.801Z,70.74
2022-09-22T02:17:21.939Z,70.97
2022-09-22T02:19:53.331Z,70.83
2022-09-22T02:22:24.559Z,70.93
2022-09-22T02:24:55.804Z,70.82
2022-09-22T02:27:36.826Z,70.63
2022-09-22T02:30:12.427Z,70.79
2022-09-22T02:32:47.468Z,70.81
2022-09-22T02:35:18.936Z,70.81
2022-09-22T02:37:54.808Z,70.83
2022-09-22T02:40:33.531Z,70.80
2022-09-22T02:43:10.987Z,70.90
2022-09-22T02:45:49.471Z,70.94
2022-09-22T02:48:24.266Z,70.94
2022-09-22T02:50:57.330Z,70.74
2022-09-22T02:53:28.622Z,70.65
2022-09-22T02:55:59.480Z,70.70
2022-09-22T02:58:30.324Z,70.80
2022-09-22T03:01:01.133Z,70.52
2022-09-22T03:03:32.081Z,70.62
2022-09-22T03:06:02.985Z,70.59
2022-09-22T03:08:33.983Z,70.49
2022-09-22T03:11:04.906Z,70.63
2022-09-22T03:13:35.742Z,70.53
2022-09-22T03:16:06.746Z,70.63
2022-09-22T03:18:37.723Z,70.58
2022-09-22T03:21:09.078Z,70.47
2022-09-22T03:23:39.898Z,70.30
2022-09-22T03:26:10.894Z,70.49
2022-09-22T03:28:44.030Z,70.59
2022-09-22T03:31:14.969Z,70.55
2022-09-22T03:33:48.194Z,70.61
2022-09-22T03:36:23.432Z,70.70
2022-09-22T03:38:55.776Z,70.68
2022-09-22T03:41:26.768Z,70.68
2022-09-22T03:43:57.698Z,70.70
2022-09-22T03:46:30.039Z,70.60
2022-09-22T03:49:00.974Z,70.54
2022-09-22T03:51:32.352Z,70.65
2022-09-22T03:54:03.736Z,70.77
2022-09-22T03:56:34.584Z,70.63
2022-09-22T03:59:05.644Z,70.65
2022-09-22T04:01:36.579Z,70.58
2022-09-22T04:04:08.464Z,70.69
2022-09-22T04:06:40.150Z,70.72
2022-09-22T04:09:11.295Z,70.78
2022-09-22T04:11:42.237Z,70.76
2022-09-22T04:14:13.186Z,70.77
2022-09-22T04:16:46.192Z,70.65
2022-09-22T04:19:17.251Z,70.78
2022-09-22T04:21:49.415Z,70.65
2022-09-22T04:24:24.629Z,70.71
2022-09-22T04:27:18.690Z,70.77
2022-09-22T04:29:47.466Z,70.60
2022-09-22T04:32:19.527Z,70.63
2022-09-22T04:34:51.168Z,70.89
2022-09-22T04:37:22.184Z,70.91
2022-09-22T04:39:56.488Z,70.85
2022-09-22T04:42:28.018Z,70.79
2022-09-22T04:45:02.395Z,70.78
2022-09-22T04:47:33.494Z,70.97
2022-09-22T04:50:04.347Z,70.85
2022-09-22T04:52:40.886Z,71.05
2022-09-22T04:55:13.130Z,70.61
2022-09-22T04:57:48.152Z,70.64
2022-09-22T05:00:23.768Z,70.72
2022-09-22T05:02:55.227Z,70.84
2022-09-22T05:05:26.185Z,70.99
2022-09-22T05:07:56.981Z,71.13
2022-09-22T05:10:32.430Z,70.86
2022-09-22T05:13:04.462Z,70.77
2022-09-22T05:15:35.437Z,70.92
2022-09-22T05:18:07.312Z,70.71
2022-09-22T05:20:39.344Z,70.69
2022-09-22T05:23:11.228Z,70.67
2022-09-22T05:25:44.592Z,70.89
2022-09-22T05:28:16.095Z,70.96
2022-09-22T05:30:47.272Z,70.89
2022-09-22T05:33:18.404Z,70.86
2022-09-22T05:35:49.297Z,70.73
2022-09-22T05:38:20.273Z,70.79
2022-09-22T05:40:51.116Z,70.81
2022-09-22T05:43:21.961Z,70.55
2022-09-22T05:45:55.550Z,70.68
2022-09-22T05:48:31.424Z,70.64
2022-09-22T05:51:02.711Z,70.70
2022-09-22T05:53:33.643Z,70.64
2022-09-22T05:56:06.223Z,70.76
2022-09-22T05:58:38.465Z,70.88
2022-09-22T06:01:09.537Z,70.73
2022-09-22T06:03:40.851Z,70.93
2022-09-22T06:06:15.068Z,71.08
2022-09-22T06:08:48.835Z,71.12
2022-09-22T06:11:20.573Z,70.80
2022-09-22T06:13:53.162Z,70.77
2022-09-22T06:16:24.102Z,70.73
2022-09-22T06:18:55.092Z,70.71
2022-09-22T06:21:26.872Z,70.81
2022-09-22T06:23:58.303Z,70.87
2022-09-22T06:26:29.915Z,70.92
2022-09-22T06:29:01.243Z,70.86
2022-09-22T06:31:33.188Z,70.77
2022-09-22T06:34:07.486Z,70.83
2022-09-22T06:36:39.420Z,70.82
2022-09-22T06:39:10.932Z,70.70
2022-09-22T06:41:42.200Z,70.88
2022-09-22T06:44:14.346Z,70.93
2022-09-22T06:46:48.941Z,70.63
2022-09-22T06:49:22.556Z,70.58
2022-09-22T06:51:54.755Z,70.42
2022-09-22T06:54:25.944Z,70.35
2022-09-22T06:56:56.924Z,70.48
2022-09-22T06:59:29.547Z,70.32
2022-09-22T07:02:00.939Z,70.28
2022-09-22T07:04:32.292Z,70.23
2022-09-22T07:07:04.203Z,70.15
2022-09-22T07:09:35.097Z,70.15
2022-09-22T07:12:06.795Z,70.46
2022-09-22T07:14:37.694Z,70.63
2022-09-22T07:17:08.489Z,70.45
2022-09-22T07:19:39.373Z,70.13
2022-09-22T07:22:10.521Z,70.11
2022-09-22T07:24:41.771Z,70.29
2022-09-22T07:27:20.207Z,70.10
2022-09-22T07:29:52.142Z,69.80
2022-09-22T07:32:23.319Z,69.24
2022-09-22T07:34:54.170Z,68.73
2022-09-22T07:37:25.544Z,68.35
2022-09-22T07:39:56.452Z,68.25
2022-09-22T07:42:27.685Z,67.97
2022-09-22T07:45:13.719Z,67.91
2022-09-22T07:48:03.400Z,67.45
2022-09-22T07:50:34.388Z,67.20
2022-09-22T07:53:05.440Z,67.23
2022-09-22T07:55:38.638Z,67.01
2022-09-22T07:58:11.929Z,66.82
2022-09-22T08:00:46.217Z,66.56
2022-09-22T08:03:17.149Z,66.48
2022-09-22T08:05:49.815Z,66.42
2022-09-22T08:08:20.906Z,66.15
2022-09-22T08:10:51.910Z,66.03
2022-09-22T08:13:23.088Z,66.09
2022-09-22T08:15:56.538Z,66.03
2022-09-22T08:18:28.507Z,65.66
2022-09-22T08:21:00.627Z,65.54
2022-09-22T08:23:32.481Z,66.01
2022-09-22T08:26:10.232Z,65.18
2022-09-22T08:28:41.526Z,64.64
2022-09-22T08:31:20.223Z,63.75
2022-09-22T08:33:52.992Z,62.75
2022-09-22T08:36:25.959Z,62.34
2022-09-22T08:38:58.014Z,62.36
2022-09-22T08:41:41.450Z,61.86
2022-09-22T08:44:23.031Z,61.22
2022-09-22T08:46:56.010Z,60.62
2022-09-22T08:49:49.365Z,60.37
2022-09-22T08:52:28.511Z,60.00
2022-09-22T08:55:02.023Z,60.06
2022-09-22T08:57:56.533Z,59.63
2022-09-22T09:00:31.547Z,58.74
2022-09-22T09:03:17.371Z,57.70
2022-09-22T09:06:09.578Z,57.15
2022-09-22T09:08:59.103Z,56.48
2022-09-22T09:11:49.576Z,55.40
2022-09-22T09:14:38.331Z,54.38
2022-09-22T09:17:15.544Z,53.51
2022-09-22T09:19:50.538Z,53.21
2022-09-22T09:22:25.391Z,52.96
2022-09-22T09:27:52.046Z,52.01
2022-09-22T09:30:24.385Z,51.55
2022-09-22T09:32:57.639Z,51.07
2022-09-22T09:35:44.222Z,50.70
2022-09-22T09:38:18.281Z,50.44
2022-09-22T09:40:54.521Z,50.69
2022-09-22T09:43:28.304Z,50.78
2022-09-22T09:46:13.702Z,50.37
2022-09-22T09:49:00.385Z,49.53
2022-09-22T09:51:39.559Z,48.76
2022-09-22T09:54:17.019Z,48.38
2022-09-22T09:57:07.445Z,48.35
2022-09-22T09:59:57.115Z,48.25
2022-09-22T10:02:31.396Z,48.46
2022-09-22T10:05:06.073Z,48.37
2022-09-22T10:07:47.223Z,48.15
2022-09-22T10:10:36.901Z,48.28
2022-09-22T10:13:35.257Z,48.03
2022-09-22T10:16:20.308Z,47.76
2022-09-22T10:18:52.730Z,47.74
2022-09-22T10:21:24.736Z,47.82
2022-09-22T10:23:57.464Z,47.93
2022-09-22T10:26:30.754Z,48.22
2022-09-22T10:29:25.177Z,48.15
2022-09-22T10:32:17.363Z,48.37
2022-09-22T10:34:57.217Z,48.51
2022-09-22T10:37:31.820Z,48.88
2022-09-22T10:40:04.707Z,49.17
2022-09-22T10:42:40.892Z,49.40
2022-09-22T10:45:37.775Z,49.63
2022-09-22T10:48:16.968Z,50.05
2022-09-22T10:50:59.409Z,50.51
2022-09-22T10:53:47.779Z,50.70
2022-09-22T10:56:30.111Z,50.72
2022-09-22T10:59:23.608Z,50.61
2022-09-22T11:05:06.053Z,49.74
2022-09-22T11:08:16.083Z,49.79
2022-09-22T11:11:14.202Z,49.93
2022-09-22T11:13:53.861Z,50.21
2022-09-22T11:16:53.624Z,50.21
2022-09-22T11:19:41.940Z,50.10
2022-09-22T11:22:35.691Z,50.43
2022-09-22T11:25:21.440Z,50.32
2022-09-22T11:28:06.701Z,50.52
2022-09-22T11:30:45.753Z,50.71
2022-09-22T11:33:33.870Z,51.14
2022-09-22T11:36:16.566Z,51.26
2022-09-22T11:39:01.898Z,51.28
2022-09-22T11:41:42.191Z,51.54
2022-09-22T11:44:32.027Z,51.77
2022-09-22T11:47:33.282Z,51.93
2022-09-22T11:50:23.658Z,52.13
2022-09-22T11:53:11.001Z,52.39
2022-09-22T11:55:50.031Z,52.26
2022-09-22T11:58:23.639Z,52.02
2022-09-22T12:00:59.432Z,51.84
2022-09-22T12:03:40.140Z,51.88
2022-09-22T12:06:16.252Z,51.93
2022-09-22T12:11:30.496Z,52.47
2022-09-22T12:14:01.850Z,52.67
2022-09-22T12:16:43.248Z,52.68
2022-09-22T12:19:26.572Z,53.00
2022-09-22T12:22:07.564Z,52.94
2022-09-22T12:24:39.918Z,53.12
2022-09-22T12:27:23.575Z,53.15
2022-09-22T12:30:03.460Z,53.29
2022-09-22T12:32:39.780Z,53.26
2022-09-22T12:35:20.703Z,53.51
2022-09-22T12:37:56.587Z,53.53
2022-09-22T12:40:31.904Z,53.61
2022-09-22T12:43:04.860Z,53.69
2022-09-22T12:45:39.133Z,53.77
2022-09-22T12:48:17.314Z,53.70
2022-09-22T12:50:48.675Z,53.92
2022-09-22T12:53:29.526Z,53.92
2022-09-22T12:56:00.928Z,53.95
2022-09-22T12:58:44.889Z,53.79
2022-09-22T13:01:36.203Z,53.82
2022-09-22T13:04:16.171Z,53.74
2022-09-22T13:07:01.138Z,53.86
2022-09-22T13:09:33.080Z,53.99
2022-09-22T13:12:36.145Z,53.93
2022-09-22T13:15:27.747Z,53.93
2022-09-22T13:18:00.140Z,53.98
2022-09-22T13:20:43.963Z,53.80
2022-09-22T13:23:17.181Z,54.04
2022-09-22T13:25:49.613Z,53.99
2022-09-22T13:28:22.964Z,54.05
2022-09-22T13:31:11.982Z,54.02
2022-09-22T13:33:44.117Z,54.01
2022-09-22T13:36:18.936Z,53.77
2022-09-22T13:38:54.651Z,53.88
2022-09-22T13:41:28.398Z,53.70
2022-09-22T13:44:07.846Z,53.64
2022-09-22T13:46:43.615Z,53.73
2022-09-22T13:49:26.002Z,53.89
2022-09-22T13:52:03.749Z,53.94
2022-09-22T13:54:38.907Z,53.79
2022-09-22T13:57:18.321Z,53.68
2022-09-22T13:59:53.963Z,53.76
2022-09-22T14:02:31.349Z,53.99
2022-09-22T14:05:18.128Z,53.91
2022-09-22T14:08:11.415Z,53.92
2022-09-22T14:10:52.926Z,53.80
2022-09-22T14:13:58.288Z,53.73
2022-09-22T14:16:35.787Z,53.87
2022-09-22T14:19:19.764Z,53.77
2022-09-22T14:21:56.908Z,54.14
2022-09-22T14:24:32.645Z,54.33
2022-09-22T14:27:09.878Z,54.13
2022-09-22T14:29:49.882Z,54.03
2022-09-22T14:32:30.307Z,53.95
2022-09-22T14:35:10.041Z,54.08
2022-09-22T14:37:46.693Z,54.02
2022-09-22T14:40:22.253Z,54.19
2022-09-22T14:43:04.400Z,54.09
2022-09-22T14:46:04.945Z,54.22
2022-09-22T14:48:37.444Z,54.10
2022-09-22T14:51:16.140Z,54.20
2022-09-22T14:53:51.235Z,54.34
2022-09-22T14:56:27.967Z,54.35
2022-09-22T14:59:23.726Z,54.53
2022-09-22T15:02:19.624Z,54.62
2022-09-22T15:04:53.884Z,54.72
2022-09-22T15:07:29.296Z,54.92
2022-09-22T15:10:02.794Z,54.91
2022-09-22T15:12:48.784Z,55.15
2022-09-22T15:15:23.215Z,55.33
2022-09-22T15:18:16.214Z,55.53
2022-09-22T15:20:50.347Z,55.42
2022-09-22T15:23:26.058Z,55.10
2022-09-22T15:25:57.519Z,54.74
2022-09-22T15:28:28.372Z,54.56
2022-09-22T15:31:00.078Z,54.19
2022-09-22T15:33:31.121Z,54.17
2022-09-22T15:36:11.647Z,53.99
2022-09-22T15:38:43.098Z,54.07
2022-09-22T15:41:16.966Z,53.91
2022-09-22T15:43:50.141Z,54.14
2022-09-22T15:46:34.073Z,54.16
2022-09-22T15:49:08.978Z,54.41
2022-09-22T15:51:43.047Z,54.45
2022-09-22T15:54:18.483Z,54.53
2022-09-22T15:56:51.118Z,54.69
2022-09-22T15:59:29.061Z,54.67
2022-09-22T16:02:02.826Z,54.90
2022-09-22T16:04:35.315Z,54.89
2022-09-22T16:07:08.644Z,54.96
2022-09-22T16:09:40.646Z,55.06
2022-09-22T16:12:13.810Z,55.20
2022-09-22T16:14:44.931Z,55.26
2022-09-22T16:17:16.274Z,55.49
2022-09-22T16:19:47.099Z,55.63
2022-09-22T16:22:18.437Z,55.65
2022-09-22T16:24:49.289Z,55.83
2022-09-22T16:27:20.151Z,55.88
2022-09-22T16:29:51.198Z,55.91
2022-09-22T16:32:22.088Z,56.18
2022-09-22T16:34:53.473Z,56.11
2022-09-22T16:37:24.946Z,56.24
2022-09-22T16:39:55.925Z,56.49
2022-09-22T16:42:26.903Z,56.57
2022-09-22T16:44:57.824Z,56.67
2022-09-22T16:47:30.967Z,56.90
2022-09-22T16:50:01.888Z,57.06
2022-09-22T16:52:32.763Z,57.21
2022-09-22T16:55:05.105Z,57.36
2022-09-22T16:57:35.997Z,57.67
2022-09-22T17:00:09.575Z,57.71
2022-09-22T17:02:40.864Z,58.02
2022-09-22T17:05:12.733Z,58.08
2022-09-22T17:07:47.267Z,58.26
2022-09-22T17:10:19.435Z,58.46
2022-09-22T17:12:50.273Z,58.53
2022-09-22T17:15:21.288Z,58.71
2022-09-22T17:17:52.663Z,58.74
2022-09-22T17:20:24.036Z,58.76
2022-09-22T17:22:55.009Z,58.80
2022-09-22T17:25:27.949Z,58.84
2022-09-22T17:27:59.491Z,58.99
2022-09-22T17:30:30.515Z,59.26
2022-09-22T17:33:01.525Z,59.35
2022-09-22T17:35:32.367Z,59.57
2022-09-22T17:38:03.248Z,59.54
2022-09-22T17:40:34.213Z,59.54
2022-09-22T17:43:05.743Z,59.61
2022-09-22T17:45:36.562Z,59.82
2022-09-22T17:48:24.983Z,59.90
2022-09-22T17:51:13.559Z,59.90
2022-09-22T17:54:01.964Z,59.82
2022-09-22T17:56:32.761Z,59.84
2022-09-22T17:59:03.835Z,59.94
2022-09-22T18:01:34.855Z,60.02
2022-09-22T18:04:05.940Z,60.28
2022-09-22T18:06:36.809Z,60.34
2022-09-22T18:09:07.746Z,60.41
2022-09-22T18:11:42.697Z,60.45
2022-09-22T18:14:13.548Z,60.47
2022-09-22T18:16:44.580Z,60.41
2022-09-22T18:19:15.663Z,60.57
2022-09-22T18:21:46.791Z,60.61
2022-09-22T18:24:19.622Z,60.67
2022-09-22T18:26:50.824Z,60.76
2022-09-22T18:29:22.157Z,60.74
2022-09-22T18:31:54.956Z,60.87
2022-09-22T18:34:31.915Z,60.72
2022-09-22T18:37:04.648Z,60.90
2022-09-22T18:39:36.381Z,61.02
2022-09-22T18:42:11.589Z,61.04
2022-09-22T18:44:43.133Z,61.06
2022-09-22T18:47:17.876Z,61.05
2022-09-22T18:49:51.585Z,61.09
2022-09-22T18:52:26.713Z,61.09
2022-09-22T18:54:58.249Z,61.19
2022-09-22T18:57:29.752Z,61.42
2022-09-22T19:00:02.030Z,61.50
2022-09-22T19:02:33.036Z,61.54
2022-09-22T19:05:08.433Z,61.63
2022-09-22T19:07:43.645Z,61.67
2022-09-22T19:10:19.008Z,61.60
2022-09-22T19:12:50.899Z,61.72
2022-09-22T19:15:25.458Z,61.79
2022-09-22T19:17:56.843Z,61.85
2022-09-22T19:20:28.620Z,61.91
2022-09-22T19:23:00.106Z,61.91
2022-09-22T19:25:32.632Z,61.93
2022-09-22T19:28:15.786Z,62.10
2022-09-22T19:30:48.095Z,62.11
2022-09-22T19:33:19.439Z,62.23
2022-09-22T19:35:54.134Z,62.31
2022-09-22T19:38:25.788Z,62.48
2022-09-22T19:40:58.759Z,62.57
2022-09-22T19:43:31.948Z,62.62
2022-09-22T19:46:03.579Z,62.73
2022-09-22T19:48:35.229Z,62.78
2022-09-22T19:51:07.229Z,62.89
2022-09-22T19:53:39.686Z,63.12
2022-09-22T19:56:11.883Z,63.25
2022-09-22T19:58:45.215Z,63.33
2022-09-22T20:01:43.164Z,63.31
2022-09-22T20:04:17.429Z,63.34
2022-09-22T20:06:48.986Z,63.70
2022-09-22T20:09:19.969Z,63.77
2022-09-22T20:11:53.175Z,63.71
2022-09-22T20:14:25.558Z,63.82
2022-09-22T20:16:59.952Z,64.15
2022-09-22T20:19:33.081Z,64.09
2022-09-22T20:22:25.112Z,64.25
2022-09-22T20:24:58.705Z,64.25
2022-09-22T20:27:31.670Z,64.25
2022-09-22T20:30:03.608Z,64.61
2022-09-22T20:32:35.597Z,64.65
2022-09-22T20:35:07.349Z,64.48
2022-09-22T20:37:39.385Z,64.71
2022-09-22T20:40:14.834Z,64.66
2022-09-22T20:42:46.443Z,64.77
2022-09-22T20:45:20.879Z,64.66
2022-09-22T20:47:52.075Z,64.89
2022-09-22T20:50:23.249Z,65.07
2022-09-22T20:52:55.582Z,65.13
2022-09-22T20:55:26.948Z,65.19
2022-09-22T20:57:59.248Z,65.30
2022-09-22T21:00:30.355Z,65.55
2022-09-22T21:03:02.606Z,65.41
2022-09-22T21:05:36.000Z,65.51
2022-09-22T21:08:25.334Z,65.72
2022-09-22T21:10:56.625Z,65.69
2022-09-22T21:13:27.982Z,66.01
2022-09-22T21:16:03.288Z,65.89
2022-09-22T21:18:36.370Z,66.14
2022-09-22T21:21:09.430Z,66.16
2022-09-22T21:23:41.029Z,66.23
2022-09-22T21:26:15.332Z,66.25
2022-09-22T21:28:47.228Z,66.38
2022-09-22T21:31:18.991Z,66.29
2022-09-22T21:33:50.405Z,66.42
2022-09-22T21:36:23.739Z,66.13
2022-09-22T21:38:58.506Z,66.44
2022-09-22T21:41:31.252Z,66.24
2022-09-22T21:44:02.989Z,66.36
2022-09-22T21:46:37.218Z,66.52
2022-09-22T21:49:08.951Z,66.56
2022-09-22T21:51:42.828Z,66.55
2022-09-22T21:54:17.793Z,66.82
2022-09-22T21:56:50.529Z,66.70
2022-09-22T21:59:21.724Z,66.82
2022-09-22T22:01:52.588Z,66.90
2022-09-22T22:04:23.551Z,66.89
2022-09-22T22:06:54.434Z,66.96
2022-09-22T22:09:26.091Z,67.18
2022-09-22T22:11:59.823Z,67.10
2022-09-22T22:14:33.602Z,67.25
2022-09-22T22:17:06.910Z,67.24
2022-09-22T22:19:37.779Z,67.14
2022-09-22T22:22:08.679Z,67.12
2022-09-22T22:24:42.326Z,67.21
2022-09-22T22:27:14.154Z,67.27
2022-09-22T22:29:46.825Z,67.09
2022-09-22T22:32:17.669Z,67.25
2022-09-22T22:34:48.665Z,67.13
2022-09-22T22:37:21.573Z,66.96
2022-09-22T22:39:54.894Z,67.25
2022-09-22T22:42:25.865Z,67.19
2022-09-22T22:44:56.888Z,67.34
2022-09-22T22:47:27.768Z,67.38
2022-09-22T22:49:58.653Z,67.25
2022-09-22T22:52:29.562Z,67.38
2022-09-22T22:55:00.495Z,67.39
2022-09-22T22:57:31.847Z,67.39
2022-09-22T23:00:02.998Z,67.48
2022-09-22T23:02:33.716Z,67.30
2022-09-22T23:05:05.001Z,67.49
2022-09-22T23:07:35.879Z,67.58
2022-09-22T23:10:07.966Z,67.75
2022-09-22T23:12:40.400Z,67.78
2022-09-22T23:15:12.528Z,67.71
2022-09-22T23:17:43.437Z,67.77
2022-09-22T23:20:15.714Z,67.75
2022-09-22T23:22:46.898Z,67.76
2022-09-22T23:25:17.979Z,67.93
2022-09-22T23:27:50.006Z,67.88
2022-09-22T23:30:21.050Z,68.06
2022-09-22T23:32:52.024Z,68.19
2022-09-22T23:35:22.906Z,68.19
2022-09-22T23:37:53.751Z,68.38
2022-09-22T23:40:24.751Z,68.35
2022-09-22T23:42:55.670Z,68.47
2022-09-22T23:45:26.653Z,68.39
2022-09-22T23:47:57.914Z,68.54
2022-09-22T23:50:28.780Z,68.56
2022-09-22T23:52:59.760Z,68.50
2022-09-22T23:55:30.618Z,68.56
2022-09-22T23:58:01.516Z,68.75
